createdAt,value
2017-09-10T00:01:19.917Z,15.30
2017-09-10T00:03:47.487Z,16.80
2017-09-10T00:06:15.756Z,13.65
2017-09-10T00:08:44.246Z,14.73
2017-09-10T00:11:11.790Z,15.67
2017-09-10T00:13:39.298Z,16.23
2017-09-10T00:16:08.045Z,14.77
2017-09-10T00:18:35.560Z,13.60
2017-09-10T00:21:03.430Z,15.10
2017-09-10T00:23:30.930Z,18.05
2017-09-10T00:25:58.695Z,14.10
2017-09-10T00:28:26.260Z,20.40
2017-09-10T00:30:53.788Z,16.03
2017-09-10T00:33:22.079Z,16.55
2017-09-10T00:35:49.618Z,17.73
2017-09-10T00:38:17.135Z,17.10
2017-09-10T00:40:46.386Z,16.08
2017-09-10T00:43:14.378Z,15.73
2017-09-10T00:45:42.783Z,12.50
2017-09-10T00:48:11.240Z,15.27
2017-09-10T00:50:38.806Z,14.83
2017-09-10T00:53:06.306Z,15.40
2017-09-10T00:55:33.871Z,12.30
2017-09-10T00:58:01.448Z,13.60
2017-09-10T01:00:28.986Z,21.67
2017-09-10T01:03:00.232Z,19.05
2017-09-10T01:05:27.843Z,14.00
2017-09-10T01:07:55.864Z,13.83
2017-09-10T01:10:23.399Z,14.60
2017-09-10T01:12:50.995Z,15.50
2017-09-10T01:15:19.025Z,13.00
2017-09-10T01:17:46.799Z,13.30
2017-09-10T01:20:14.344Z,19.35
2017-09-10T01:22:42.672Z,16.00
2017-09-10T01:25:10.199Z,13.57
2017-09-10T01:27:37.820Z,15.27
2017-09-10T01:30:05.628Z,11.90
2017-09-10T01:32:33.993Z,12.10
2017-09-10T01:35:01.546Z,14.15
2017-09-10T01:37:29.826Z,13.07
2017-09-10T01:39:58.021Z,14.43
2017-09-10T01:42:25.690Z,13.20
2017-09-10T01:44:53.191Z,14.00
2017-09-10T01:47:20.718Z,11.43
2017-09-10T01:49:48.264Z,14.00
2017-09-10T01:52:15.774Z,12.07
2017-09-10T01:54:43.292Z,12.40
2017-09-10T01:57:10.791Z,12.68
2017-09-10T01:59:38.793Z,16.20
2017-09-10T02:02:06.323Z,19.50
2017-09-10T02:04:34.609Z,10.95
2017-09-10T02:07:02.106Z,13.30
2017-09-10T02:09:29.646Z,13.33
2017-09-10T02:11:57.144Z,14.02
2017-09-10T02:14:25.271Z,14.52
2017-09-10T02:16:52.859Z,16.53
2017-09-10T02:19:20.866Z,14.53
2017-09-10T02:21:48.677Z,13.30
2017-09-10T02:24:16.191Z,14.50
2017-09-10T02:26:43.855Z,16.67
2017-09-10T02:29:11.947Z,21.73
2017-09-10T02:31:39.460Z,16.47
2017-09-10T02:34:06.967Z,13.00
2017-09-10T02:36:35.463Z,13.60
2017-09-10T02:39:03.792Z,13.07
2017-09-10T02:41:31.352Z,16.97
2017-09-10T02:43:58.859Z,16.77
2017-09-10T02:46:26.375Z,17.00
2017-09-10T02:48:58.407Z,16.13
2017-09-10T02:51:25.923Z,13.80
2017-09-10T02:53:54.200Z,16.93
2017-09-10T02:56:21.780Z,15.75
2017-09-10T02:58:49.424Z,15.27
2017-09-10T03:01:17.689Z,16.95
2017-09-10T03:03:45.198Z,12.52
2017-09-10T03:06:12.711Z,13.60
2017-09-10T03:08:40.271Z,16.48
2017-09-10T03:11:09.485Z,16.57
2017-09-10T03:13:37.083Z,15.70
2017-09-10T03:16:04.583Z,15.83
2017-09-10T03:18:32.103Z,14.73
2017-09-10T03:20:59.607Z,15.50
2017-09-10T03:23:27.930Z,17.02
2017-09-10T03:25:56.001Z,15.75
2017-09-10T03:28:23.511Z,14.90
2017-09-10T03:30:51.032Z,16.20
2017-09-10T03:33:19.038Z,16.97
2017-09-10T03:35:46.557Z,17.07
2017-09-10T03:38:14.259Z,15.50
2017-09-10T03:40:41.766Z,17.43
2017-09-10T03:43:09.977Z,16.90
2017-09-10T03:45:37.483Z,16.57
2017-09-10T03:48:05.019Z,15.07
2017-09-10T03:50:36.081Z,20.03
2017-09-10T03:53:03.887Z,16.83
2017-09-10T03:55:31.400Z,14.70
2017-09-10T03:57:59.409Z,16.42
2017-09-10T04:00:27.226Z,14.00
2017-09-10T04:02:54.918Z,15.50
2017-09-10T04:05:22.430Z,15.90
2017-09-10T04:07:49.972Z,15.83
2017-09-10T04:10:18.183Z,15.85
2017-09-10T04:12:45.743Z,15.85
2017-09-10T04:15:13.247Z,18.87
2017-09-10T04:17:40.933Z,14.57
2017-09-10T04:20:12.132Z,16.50
2017-09-10T04:22:39.643Z,18.42
2017-09-10T04:25:07.978Z,21.58
2017-09-10T04:27:35.513Z,15.50
2017-09-10T04:30:03.049Z,17.10
2017-09-10T04:32:30.580Z,19.60
2017-09-10T04:34:58.111Z,15.57
2017-09-10T04:37:25.651Z,16.30
2017-09-10T04:39:53.163Z,17.60
2017-09-10T04:42:21.989Z,15.98
2017-09-10T04:44:49.606Z,16.07
2017-09-10T04:47:17.120Z,16.10
2017-09-10T04:49:44.726Z,14.67
2017-09-10T04:52:12.403Z,14.73
2017-09-10T04:54:41.459Z,13.77
2017-09-10T04:57:08.968Z,19.17
2017-09-10T04:59:38.156Z,15.70
2017-09-10T05:02:05.659Z,16.17
2017-09-10T05:04:33.186Z,19.80
2017-09-10T05:07:00.703Z,15.70
2017-09-10T05:09:28.604Z,15.70
2017-09-10T05:11:56.132Z,21.85
2017-09-10T05:14:25.354Z,15.40
2017-09-10T05:16:52.922Z,15.57
2017-09-10T05:19:21.197Z,18.12
2017-09-10T05:21:49.009Z,14.00
2017-09-10T05:24:16.529Z,14.68
2017-09-10T05:26:44.215Z,16.77
2017-09-10T05:29:11.843Z,17.00
2017-09-10T05:31:39.427Z,15.33
2017-09-10T05:34:06.942Z,15.97
2017-09-10T05:36:38.392Z,16.23
2017-09-10T05:39:05.893Z,13.73
2017-09-10T05:41:33.400Z,17.77
2017-09-10T05:44:00.912Z,13.13
2017-09-10T05:46:28.917Z,14.37
2017-09-10T05:48:56.545Z,14.43
2017-09-10T05:51:24.049Z,13.10
2017-09-10T05:53:52.951Z,12.15
2017-09-10T05:56:20.498Z,14.23
2017-09-10T05:58:48.033Z,13.20
2017-09-10T06:01:16.464Z,17.80
2017-09-10T06:03:44.003Z,10.23
2017-09-10T06:06:12.442Z,11.03
2017-09-10T06:08:39.974Z,10.37
2017-09-10T06:11:07.623Z,10.32
2017-09-10T06:13:36.819Z,11.70
2017-09-10T06:16:04.324Z,11.63
2017-09-10T06:18:31.846Z,11.20
2017-09-10T06:20:59.362Z,11.97
2017-09-10T06:23:26.887Z,9.27
2017-09-10T06:25:55.013Z,9.13
2017-09-10T06:28:22.720Z,9.43
2017-09-10T06:30:50.247Z,8.30
2017-09-10T06:33:17.861Z,10.52
2017-09-10T06:35:45.367Z,9.90
2017-09-10T06:38:14.944Z,11.60
2017-09-10T06:40:42.670Z,10.00
2017-09-10T06:43:10.531Z,9.10
2017-09-10T06:45:38.860Z,9.85
2017-09-10T06:48:06.823Z,6.87
2017-09-10T06:50:34.399Z,8.87
2017-09-10T06:53:05.783Z,7.43
2017-09-10T06:55:33.671Z,7.37
2017-09-10T06:58:01.252Z,7.82
2017-09-10T07:00:28.814Z,9.40
2017-09-10T07:02:56.363Z,7.53
2017-09-10T07:05:23.867Z,6.85
2017-09-10T07:07:51.463Z,5.43
2017-09-10T07:10:19.459Z,5.83
2017-09-10T07:12:47.584Z,8.30
2017-09-10T07:15:15.095Z,5.53
2017-09-10T07:17:42.636Z,5.83
2017-09-10T07:20:10.134Z,3.67
2017-09-10T07:22:38.695Z,4.47
2017-09-10T07:25:10.132Z,4.53
2017-09-10T07:27:37.630Z,7.97
2017-09-10T07:30:05.321Z,4.10
2017-09-10T07:32:33.072Z,6.77
2017-09-10T07:35:01.511Z,4.20
2017-09-10T07:37:29.007Z,3.30
2017-09-10T07:40:01.096Z,3.83
2017-09-10T07:42:28.596Z,6.00
2017-09-10T07:44:57.091Z,5.07
2017-09-10T07:47:24.623Z,7.85
2017-09-10T07:49:52.348Z,5.95
2017-09-10T07:52:19.915Z,3.08
2017-09-10T07:54:47.673Z,4.37
2017-09-10T07:57:19.315Z,3.10
2017-09-10T07:59:46.818Z,3.35
2017-09-10T08:02:14.322Z,4.12
2017-09-10T08:04:42.596Z,4.77
2017-09-10T08:07:10.454Z,4.22
2017-09-10T08:09:38.823Z,7.93
2017-09-10T08:12:07.167Z,3.80
2017-09-10T08:14:36.085Z,3.03
2017-09-10T08:17:06.025Z,6.78
2017-09-10T08:19:33.550Z,6.40
2017-09-10T08:22:01.103Z,6.13
2017-09-10T08:24:28.624Z,3.80
2017-09-10T08:26:56.143Z,3.50
2017-09-10T08:29:23.662Z,9.68
2017-09-10T08:31:51.167Z,3.57
2017-09-10T08:34:19.379Z,5.43
2017-09-10T08:36:47.255Z,3.66
2017-09-10T08:39:15.279Z,4.10
2017-09-10T08:41:43.796Z,7.28
2017-09-10T08:44:11.295Z,2.97
2017-09-10T08:46:38.811Z,3.33
2017-09-10T08:49:06.623Z,2.30
2017-09-10T08:51:34.183Z,4.40
2017-09-10T08:54:01.812Z,3.70
2017-09-10T08:56:29.341Z,2.60
2017-09-10T08:58:57.439Z,3.08
2017-09-10T09:01:24.980Z,2.73
2017-09-10T09:03:52.507Z,6.40
2017-09-10T09:06:20.026Z,1.50
2017-09-10T09:08:47.599Z,5.10
2017-09-10T09:11:15.324Z,2.10
2017-09-10T09:13:42.883Z,1.95
2017-09-10T09:16:11.107Z,2.40
2017-09-10T09:18:38.725Z,2.80
2017-09-10T09:21:06.262Z,2.75
2017-09-10T09:23:33.768Z,3.28
2017-09-10T09:26:08.716Z,3.93
2017-09-10T09:28:37.000Z,2.17
2017-09-10T09:31:04.695Z,1.97
2017-09-10T09:33:32.205Z,2.53
2017-09-10T09:35:59.827Z,2.83
2017-09-10T09:38:27.408Z,3.43
2017-09-10T09:40:55.255Z,2.53
2017-09-10T09:43:22.791Z,2.57
2017-09-10T09:45:50.462Z,2.70
2017-09-10T09:48:17.999Z,1.90
2017-09-10T09:50:46.284Z,3.30
2017-09-10T09:53:14.755Z,3.47
2017-09-10T09:55:46.823Z,9.70
2017-09-10T09:58:16.024Z,4.10
2017-09-10T10:00:45.223Z,1.57
2017-09-10T10:03:12.799Z,4.45
2017-09-10T10:05:40.308Z,2.00
2017-09-10T10:08:07.808Z,4.70
2017-09-10T10:10:35.470Z,11.30
2017-09-10T10:13:03.272Z,5.47
2017-09-10T10:15:30.783Z,2.50
2017-09-10T10:17:59.781Z,2.80
2017-09-10T10:20:28.086Z,2.37
2017-09-10T10:22:56.100Z,2.83
2017-09-10T10:25:23.975Z,4.83
2017-09-10T10:27:51.571Z,2.13
2017-09-10T10:30:19.097Z,3.87
2017-09-10T10:32:46.843Z,1.83
2017-09-10T10:35:14.347Z,3.97
2017-09-10T10:37:41.859Z,3.35
2017-09-10T10:40:09.399Z,6.10
2017-09-10T10:42:37.655Z,2.30
2017-09-10T10:45:05.183Z,1.90
2017-09-10T10:47:33.452Z,2.27
2017-09-10T10:50:01.912Z,2.70
2017-09-10T10:52:29.875Z,6.30
2017-09-10T10:54:57.416Z,1.65
2017-09-10T10:57:24.952Z,2.72
2017-09-10T10:59:52.447Z,2.70
2017-09-10T11:02:20.908Z,4.10
2017-09-10T11:04:48.463Z,3.17
2017-09-10T11:07:16.471Z,2.30
2017-09-10T11:09:43.985Z,4.83
2017-09-10T11:12:11.983Z,6.37
2017-09-10T11:14:40.254Z,3.75
2017-09-10T11:17:07.831Z,3.50
2017-09-10T11:19:35.343Z,3.70
2017-09-10T11:22:02.884Z,1.62
2017-09-10T11:24:30.515Z,4.60
2017-09-10T11:26:58.075Z,4.72
2017-09-10T11:29:26.079Z,3.17
2017-09-10T11:31:54.795Z,2.17
2017-09-10T11:34:22.339Z,4.30
2017-09-10T11:36:49.839Z,4.20
2017-09-10T11:39:19.780Z,4.20
2017-09-10T11:41:47.279Z,2.17
2017-09-10T11:44:14.823Z,2.20
2017-09-10T11:46:43.272Z,2.43
2017-09-10T11:49:10.960Z,3.33
2017-09-10T11:51:38.516Z,6.00
2017-09-10T11:54:06.011Z,3.33
2017-09-10T11:56:33.508Z,2.27
2017-09-10T11:59:02.688Z,3.60
2017-09-10T12:01:30.205Z,2.17
2017-09-10T12:03:57.839Z,2.33
2017-09-10T12:06:25.343Z,6.13
2017-09-10T12:08:52.876Z,3.10
2017-09-10T12:11:21.383Z,2.17
2017-09-10T12:13:48.906Z,4.53
2017-09-10T12:16:16.452Z,5.67
2017-09-10T12:18:44.749Z,1.97
2017-09-10T12:21:12.260Z,8.20
2017-09-10T12:23:39.811Z,13.45
2017-09-10T12:26:07.327Z,1.67
2017-09-10T12:28:36.443Z,2.75
2017-09-10T12:31:04.007Z,1.90
2017-09-10T12:33:31.516Z,4.90
2017-09-10T12:35:59.941Z,1.70
2017-09-10T12:38:27.481Z,4.30
2017-09-10T12:40:55.031Z,2.40
2017-09-10T12:43:22.574Z,2.97
2017-09-10T12:45:54.204Z,4.30
2017-09-10T12:48:21.715Z,3.47
2017-09-10T12:50:49.343Z,4.55
2017-09-10T12:53:16.853Z,3.40
2017-09-10T12:55:44.358Z,2.50
2017-09-10T12:58:12.664Z,3.47
2017-09-10T13:00:40.415Z,3.55
2017-09-10T13:03:08.917Z,4.18
2017-09-10T13:05:36.432Z,2.93
2017-09-10T13:08:04.056Z,2.97
2017-09-10T13:10:31.562Z,2.60
2017-09-10T13:13:00.735Z,4.93
2017-09-10T13:15:31.947Z,3.60
2017-09-10T13:17:59.482Z,3.35
2017-09-10T13:20:28.011Z,3.35
2017-09-10T13:22:55.515Z,2.17
2017-09-10T13:25:23.060Z,3.93
2017-09-10T13:27:51.330Z,4.33
2017-09-10T13:30:19.211Z,6.40
2017-09-10T13:32:47.308Z,5.12
2017-09-10T13:35:15.293Z,4.40
2017-09-10T13:37:42.867Z,2.63
2017-09-10T13:40:10.787Z,3.87
2017-09-10T13:42:38.668Z,7.37
2017-09-10T13:45:06.648Z,4.95
2017-09-10T13:47:34.309Z,4.70
2017-09-10T13:50:01.806Z,3.07
2017-09-10T13:52:29.306Z,3.53
2017-09-10T13:54:56.843Z,2.93
2017-09-10T13:57:26.080Z,3.60
2017-09-10T13:59:57.524Z,4.00
2017-09-10T14:02:25.746Z,2.70
2017-09-10T14:04:53.280Z,2.63
2017-09-10T14:07:20.868Z,4.40
2017-09-10T14:09:49.200Z,1.93
2017-09-10T14:12:16.706Z,3.33
2017-09-10T14:14:44.711Z,5.00
2017-09-10T14:17:12.211Z,6.57
2017-09-10T14:19:39.829Z,3.30
2017-09-10T14:22:07.332Z,2.20
2017-09-10T14:24:34.915Z,4.23
2017-09-10T14:27:04.123Z,4.53
2017-09-10T14:29:31.619Z,3.33
2017-09-10T14:32:02.171Z,2.47
2017-09-10T14:34:29.671Z,3.30
2017-09-10T14:36:57.987Z,2.37
2017-09-10T14:39:25.488Z,2.20
2017-09-10T14:41:54.488Z,7.30
2017-09-10T14:44:22.007Z,3.53
2017-09-10T14:46:49.511Z,2.00
2017-09-10T14:49:18.698Z,2.97
2017-09-10T14:51:46.206Z,8.27
2017-09-10T14:54:13.774Z,2.63
2017-09-10T14:56:42.645Z,5.37
2017-09-10T14:59:10.216Z,4.63
2017-09-10T15:01:37.719Z,6.50
2017-09-10T15:04:05.507Z,9.80
2017-09-10T15:06:33.018Z,3.17
2017-09-10T15:09:00.514Z,4.15
2017-09-10T15:11:28.803Z,8.17
2017-09-10T15:13:56.923Z,3.50
2017-09-10T15:16:24.650Z,5.43
2017-09-10T15:18:52.202Z,5.55
2017-09-10T15:21:21.429Z,4.70
2017-09-10T15:23:48.996Z,4.50
2017-09-10T15:26:16.517Z,3.87
2017-09-10T15:28:44.143Z,3.63
2017-09-10T15:31:11.639Z,4.60
2017-09-10T15:33:39.142Z,3.30
2017-09-10T15:36:06.679Z,4.30
2017-09-10T15:38:35.119Z,3.40
2017-09-10T15:41:02.631Z,2.97
2017-09-10T15:43:30.687Z,2.43
2017-09-10T15:45:58.193Z,5.23
2017-09-10T15:48:25.908Z,2.80
2017-09-10T15:50:54.902Z,4.03
2017-09-10T15:53:22.403Z,9.93
2017-09-10T15:55:49.907Z,5.93
2017-09-10T15:58:17.422Z,3.80
2017-09-10T16:00:45.447Z,3.50
2017-09-10T16:03:13.430Z,4.90
2017-09-10T16:05:41.415Z,3.83
2017-09-10T16:08:08.948Z,3.20
2017-09-10T16:10:36.479Z,3.97
2017-09-10T16:13:04.810Z,4.12
2017-09-10T16:15:33.103Z,10.40
2017-09-10T16:18:00.614Z,3.17
2017-09-10T16:20:28.163Z,4.90
2017-09-10T16:22:57.394Z,2.67
2017-09-10T16:25:24.904Z,4.50
2017-09-10T16:27:53.197Z,4.00
2017-09-10T16:30:20.731Z,2.30
2017-09-10T16:32:48.991Z,3.07
2017-09-10T16:35:16.486Z,5.93
2017-09-10T16:37:44.232Z,5.50
2017-09-10T16:40:11.767Z,9.70
2017-09-10T16:42:39.431Z,6.30
2017-09-10T16:45:06.941Z,4.47
2017-09-10T16:47:34.930Z,3.85
2017-09-10T16:50:02.419Z,3.10
2017-09-10T16:52:29.950Z,3.43
2017-09-10T16:54:57.504Z,4.77
2017-09-10T16:57:25.457Z,4.43
2017-09-10T16:59:52.973Z,5.60
2017-09-10T17:02:21.287Z,6.00
2017-09-10T17:04:48.794Z,3.95
2017-09-10T17:07:16.371Z,5.20
2017-09-10T17:09:43.904Z,3.97
2017-09-10T17:12:11.430Z,2.23
2017-09-10T17:14:38.934Z,3.97
2017-09-10T17:17:06.435Z,6.03
2017-09-10T17:19:33.980Z,3.80
2017-09-10T17:22:02.158Z,2.75
2017-09-10T17:24:29.718Z,2.12
2017-09-10T17:26:57.211Z,3.13
2017-09-10T17:29:24.723Z,2.70
2017-09-10T17:31:52.259Z,4.80
2017-09-10T17:34:19.781Z,4.27
2017-09-10T17:36:47.282Z,4.53
2017-09-10T17:39:14.894Z,4.37
2017-09-10T17:41:42.427Z,3.50
2017-09-10T17:44:10.533Z,3.95
2017-09-10T17:46:38.037Z,5.60
2017-09-10T17:49:06.312Z,2.60
2017-09-10T17:51:33.863Z,2.22
2017-09-10T17:54:01.374Z,3.03
2017-09-10T17:56:30.247Z,4.93
2017-09-10T17:58:58.121Z,4.10
2017-09-10T18:01:26.083Z,6.87
2017-09-10T18:03:54.511Z,3.23
2017-09-10T18:06:22.019Z,10.23
2017-09-10T18:08:50.588Z,8.47
2017-09-10T18:11:19.018Z,6.97
2017-09-10T18:13:46.512Z,3.20
2017-09-10T18:16:14.775Z,3.87
2017-09-10T18:18:42.327Z,3.77
2017-09-10T18:21:09.827Z,4.97
2017-09-10T18:23:39.073Z,3.28
2017-09-10T18:26:06.583Z,4.03
2017-09-10T18:28:34.095Z,4.87
2017-09-10T18:31:01.657Z,4.53
2017-09-10T18:33:29.199Z,5.07
2017-09-10T18:35:57.345Z,7.30
2017-09-10T18:38:24.849Z,6.47
2017-09-10T18:40:52.370Z,3.33
2017-09-10T18:43:19.865Z,5.05
2017-09-10T18:45:47.387Z,6.43
2017-09-10T18:48:14.966Z,6.43
2017-09-10T18:50:42.515Z,4.53
2017-09-10T18:53:10.588Z,9.65
2017-09-10T18:55:38.078Z,6.53
2017-09-10T18:58:05.579Z,9.83
2017-09-10T19:00:33.119Z,5.03
2017-09-10T19:03:01.782Z,5.78
2017-09-10T19:05:30.207Z,4.00
2017-09-10T19:07:57.712Z,6.63
2017-09-10T19:10:25.211Z,8.17
2017-09-10T19:12:52.759Z,6.47
2017-09-10T19:15:20.250Z,7.10
2017-09-10T19:17:47.783Z,4.80
2017-09-10T19:20:16.055Z,12.23
2017-09-10T19:22:43.768Z,8.00
2017-09-10T19:25:11.311Z,4.57
2017-09-10T19:27:38.899Z,5.43
2017-09-10T19:30:06.435Z,8.40
2017-09-10T19:32:33.952Z,6.37
2017-09-10T19:35:01.777Z,6.00
2017-09-10T19:37:29.848Z,5.72
2017-09-10T19:39:57.404Z,10.20
2017-09-10T19:42:24.948Z,8.40
2017-09-10T19:44:52.457Z,7.33
2017-09-10T19:47:19.971Z,5.62
2017-09-10T19:49:47.482Z,7.50
2017-09-10T19:52:16.711Z,6.43
2017-09-10T19:54:44.319Z,8.63
2017-09-10T19:57:12.208Z,5.22
2017-09-10T19:59:39.766Z,7.20
2017-09-10T20:02:08.047Z,7.22
2017-09-10T20:04:36.478Z,6.30
2017-09-10T20:07:04.056Z,7.43
2017-09-10T20:09:31.595Z,8.80
2017-09-10T20:11:59.128Z,5.43
2017-09-10T20:14:26.634Z,5.43
2017-09-10T20:16:54.579Z,9.32
2017-09-10T20:19:22.091Z,6.57
2017-09-10T20:21:52.832Z,7.40
2017-09-10T20:24:20.335Z,10.37
2017-09-10T20:26:47.895Z,5.77
2017-09-10T20:29:15.448Z,8.10
2017-09-10T20:31:43.879Z,5.85
2017-09-10T20:34:11.420Z,6.90
2017-09-10T20:36:38.925Z,8.47
2017-09-10T20:39:06.569Z,6.50
2017-09-10T20:41:34.115Z,5.00
2017-09-10T20:44:01.620Z,7.10
2017-09-10T20:46:29.143Z,6.60
2017-09-10T20:48:58.371Z,7.78
2017-09-10T20:51:25.881Z,8.60
2017-09-10T20:53:54.139Z,6.53
2017-09-10T20:56:22.231Z,6.32
2017-09-10T20:58:49.795Z,6.40
2017-09-10T21:01:18.124Z,7.17
2017-09-10T21:03:45.667Z,6.57
2017-09-10T21:06:13.341Z,5.65
2017-09-10T21:08:41.571Z,8.57
2017-09-10T21:11:09.313Z,10.10
2017-09-10T21:13:36.828Z,7.12
2017-09-10T21:16:04.339Z,7.70
2017-09-10T21:18:31.862Z,6.77
2017-09-10T21:20:59.415Z,9.70
2017-09-10T21:23:30.115Z,16.60
2017-09-10T21:25:57.661Z,6.13
2017-09-10T21:28:25.985Z,7.30
2017-09-10T21:30:53.526Z,7.15
2017-09-10T21:33:21.887Z,5.90
2017-09-10T21:35:49.891Z,6.12
2017-09-10T21:38:21.039Z,5.13
2017-09-10T21:40:48.543Z,5.25
2017-09-10T21:43:16.072Z,7.33
2017-09-10T21:45:44.510Z,6.18
2017-09-10T21:48:12.016Z,6.33
2017-09-10T21:50:39.578Z,6.17
2017-09-10T21:53:07.191Z,5.85
2017-09-10T21:55:34.695Z,4.97
2017-09-10T21:58:02.209Z,5.87
2017-09-10T22:00:29.967Z,5.10
2017-09-10T22:02:57.951Z,12.32
2017-09-10T22:05:25.487Z,5.37
2017-09-10T22:07:57.565Z,7.13
2017-09-10T22:10:25.124Z,5.10
2017-09-10T22:12:52.852Z,8.38
2017-09-10T22:15:21.156Z,7.17
2017-09-10T22:17:48.657Z,5.00
2017-09-10T22:20:16.159Z,4.33
2017-09-10T22:22:43.675Z,4.90
2017-09-10T22:25:12.175Z,4.22
2017-09-10T22:27:39.688Z,5.10
2017-09-10T22:30:07.211Z,6.60
2017-09-10T22:32:35.515Z,4.62
2017-09-10T22:35:03.015Z,3.62
2017-09-10T22:37:32.819Z,4.95
2017-09-10T22:40:00.357Z,6.40
2017-09-10T22:42:27.883Z,5.30
2017-09-10T22:44:56.285Z,4.75
2017-09-10T22:47:24.259Z,6.37
2017-09-10T22:49:51.785Z,8.60
2017-09-10T22:52:21.047Z,5.90
2017-09-10T22:54:48.580Z,4.13
2017-09-10T22:57:16.148Z,5.37
2017-09-10T22:59:43.694Z,5.57
2017-09-10T23:02:11.387Z,5.43
2017-09-10T23:04:38.999Z,6.70
2017-09-10T23:07:06.547Z,10.23
2017-09-10T23:09:35.433Z,5.94
2017-09-10T23:12:04.623Z,5.32
2017-09-10T23:14:32.123Z,9.03
2017-09-10T23:16:59.617Z,6.50
2017-09-10T23:19:27.319Z,7.03
2017-09-10T23:21:54.864Z,9.93
2017-09-10T23:24:30.237Z,7.73
2017-09-10T23:26:57.795Z,6.17
2017-09-10T23:29:25.327Z,11.00
2017-09-10T23:31:52.868Z,9.67
2017-09-10T23:34:20.587Z,5.87
2017-09-10T23:36:49.225Z,6.10
2017-09-10T23:39:17.180Z,4.37
2017-09-10T23:41:45.455Z,3.45
2017-09-10T23:44:13.866Z,6.73
2017-09-10T23:46:41.355Z,3.80
2017-09-10T23:49:08.922Z,3.37
2017-09-10T23:51:36.458Z,2.90
2017-09-10T23:54:03.958Z,4.40
2017-09-10T23:56:31.457Z,3.00
2017-09-10T23:58:59.230Z,3.42
